Time;durP1;ratioP1;P1;durP2;ratioP2;P2;SDS_P1;SDS_P2;PMS_P1;PMS_P2;Temp;Humidity;BMP_temperature;BMP_pressure;BME280_temperature;BME280_humidity;BME280_pressure;Samples;Min_cycle;Max_cycle;Signal;HPM_P1;HPM_P2
2020/12/07 00:00:49;;;;;;;15.20;6.25;;;;;;;5.01;45.75;152427.63;1813252;79;21257;-63
2020/12/07 00:03:21;;;;;;;15.10;5.47;;;;;;;5.00;45.69;152426.28;1814448;79;21162;-63
2020/12/07 00:05:54;;;;;;;14.68;6.58;;;;;;;4.95;45.78;152413.28;1814115;79;21174;-62
2020/12/07 00:08:26;;;;;;;15.68;7.33;;;;;;;4.86;45.70;152389.78;1811880;79;21306;-63
2020/12/07 00:11:00;;;;;;;17.85;6.28;;;;;;;4.89;45.79;152397.61;1781784;79;21633;-62
2020/12/07 00:13:34;;;;;;;14.73;6.62;;;;;;;4.79;45.74;152370.27;1759640;80;21313;-62
2020/12/07 00:16:11;;;;;;;15.53;6.75;;;;;;;4.84;45.62;152383.27;1770542;79;21318;-62
2020/12/07 00:18:44;;;;;;;16.25;6.55;;;;;;;5.20;45.20;152478.48;1806082;79;21287;-62
2020/12/07 00:21:16;;;;;;;13.83;6.67;;;;;;;4.77;45.51;152366.31;1776407;79;21319;-62
2020/12/07 00:23:49;;;;;;;19.65;6.65;;;;;;;4.99;45.40;152423.67;1775969;79;21310;-62
2020/12/07 00:26:21;;;;;;;13.32;6.47;;;;;;;5.26;45.12;152494.09;1806228;79;21203;-62
2020/12/07 00:28:58;;;;;;;15.85;5.78;;;;;;;5.37;44.73;152522.80;1721547;81;21665;-63
2020/12/07 00:31:27;;;;;;;15.38;6.60;;;;;;;5.35;44.68;152518.89;1721540;81;21364;-62
2020/12/07 00:33:59;;;;;;;16.57;6.00;;;;;;;5.33;44.70;152512.34;1739361;81;21316;-62
2020/12/07 00:36:32;;;;;;;12.85;5.47;;;;;;;5.00;44.93;152426.28;1761573;81;21327;-62
2020/12/07 00:39:05;;;;;;;12.70;5.65;;;;;;;4.84;45.32;152383.27;1762026;81;21164;-63
2020/12/07 00:41:37;;;;;;;20.40;6.20;;;;;;;4.86;45.36;152389.78;1777974;80;21214;-62
2020/12/07 00:44:10;;;;;;;13.35;5.62;;;;;;;4.80;45.38;152374.16;1773921;81;21190;-62
2020/12/07 00:46:43;;;;;;;15.65;5.58;;;;;;;4.81;45.40;152376.77;1774141;81;21166;-62
2020/12/07 00:49:15;;;;;;;11.45;5.65;;;;;;;4.75;45.49;152359.81;1773899;81;21317;-62
2020/12/07 00:51:49;;;;;;;14.23;5.15;;;;;;;4.72;45.45;152353.31;1748640;81;21829;-63
2020/12/07 00:54:22;;;;;;;14.95;6.20;;;;;;;4.78;45.49;152368.94;1760287;81;21321;-63
2020/12/07 00:56:55;;;;;;;15.55;6.15;;;;;;;4.64;45.45;152331.16;1755762;80;21362;-63
2020/12/07 00:59:29;;;;;;;15.90;6.05;;;;;;;4.68;45.47;152341.59;1773991;80;21297;-63
2020/12/07 01:02:03;;;;;;;19.35;6.92;;;;;;;4.62;45.47;152327.25;1775104;80;21356;-63
2020/12/07 01:04:36;;;;;;;17.27;7.03;;;;;;;4.75;45.34;152359.81;1773780;80;21824;-63
2020/12/07 01:07:10;;;;;;;17.87;6.20;;;;;;;4.26;45.83;152232.09;1773878;81;21348;-63
2020/12/07 01:09:43;;;;;;;15.38;6.00;;;;;;;4.43;45.79;152275.09;1775558;80;21744;-63
2020/12/07 01:12:16;;;;;;;13.55;6.50;;;;;;;4.32;45.76;152246.44;1746854;80;21163;-63
2020/12/07 01:14:51;;;;;;;15.48;5.75;;;;;;;4.15;45.73;152202.16;1750995;81;21857;-64
2020/12/07 01:17:24;;;;;;;13.85;5.37;;;;;;;4.22;45.88;152220.37;1738539;81;21307;-63
2020/12/07 01:19:59;;;;;;;16.40;6.25;;;;;;;4.25;45.85;152228.20;1737349;82;21163;-62
2020/12/07 01:22:33;;;;;;;13.10;5.15;;;;;;;4.13;45.92;152198.22;1722489;82;21339;-64
2020/12/07 01:25:06;;;;;;;14.28;5.83;;;;;;;4.10;46.02;152189.11;1701463;84;21341;-64
2020/12/07 01:27:40;;;;;;;15.45;6.30;;;;;;;4.25;45.88;152228.20;1728851;82;21372;-64
2020/12/07 01:30:12;;;;;;;17.62;5.97;;;;;;;4.41;45.67;152269.88;1750409;81;21333;-64
2020/12/07 01:32:45;;;;;;;15.50;6.42;;;;;;;4.23;45.70;152224.27;1759979;81;21200;-64
2020/12/07 01:35:17;;;;;;;14.07;6.55;;;;;;;4.34;45.66;152252.94;1760210;81;21339;-64
2020/12/07 01:37:50;;;;;;;16.80;6.28;;;;;;;4.35;45.39;152254.25;1763497;81;22419;-65
2020/12/07 01:40:23;;;;;;;14.15;6.70;;;;;;;4.23;45.55;152224.27;1737146;82;21377;-64
2020/12/07 01:42:56;;;;;;;15.83;6.37;;;;;;;4.19;45.67;152212.55;1722042;82;21336;-64
2020/12/07 01:45:29;;;;;;;14.47;5.37;;;;;;;4.29;45.61;152239.92;1742143;82;21202;-64
2020/12/07 01:48:02;;;;;;;10.80;4.75;;;;;;;4.29;45.53;152239.92;1742253;82;21194;-64
2020/12/07 01:50:34;;;;;;;15.13;6.58;;;;;;;3.81;45.99;152113.59;1742088;82;21340;-63
2020/12/07 01:53:07;;;;;;;11.90;5.87;;;;;;;3.57;46.43;152052.38;1742439;82;21198;-63
2020/12/07 01:55:44;;;;;;;14.83;5.33;;;;;;;3.65;46.38;152071.91;1742329;82;21182;-64
2020/12/07 01:58:17;;;;;;;13.25;5.90;;;;;;;3.76;46.32;152100.55;1742680;81;21307;-64
2020/12/07 02:00:50;;;;;;;14.43;5.22;;;;;;;3.74;46.27;152095.33;1742103;82;21208;-64
2020/12/07 02:03:23;;;;;;;11.90;4.92;;;;;;;3.69;46.29;152083.63;1742266;82;21521;-64
2020/12/07 02:05:55;;;;;;;10.15;4.67;;;;;;;3.82;46.03;152117.48;1742223;82;21247;-64
2020/12/07 02:08:27;;;;;;;9.85;4.45;;;;;;;3.82;46.00;152116.20;1741996;82;21353;-63
2020/12/07 02:11:02;;;;;;;16.20;5.80;;;;;;;3.96;45.83;152153.97;1741470;82;21326;-64
2020/12/07 02:13:35;;;;;;;12.15;5.47;;;;;;;3.92;45.80;152142.25;1769074;79;21320;-64
2020/12/07 02:16:08;;;;;;;14.63;5.30;;;;;;;3.95;45.72;152150.03;1801365;79;21347;-63
2020/12/07 02:18:42;;;;;;;14.55;5.33;;;;;;;3.92;45.84;152142.25;1792218;79;21777;-63
2020/12/07 02:21:14;;;;;;;13.43;6.47;;;;;;;3.95;45.75;152150.03;1785495;80;21166;-63
2020/12/07 02:23:51;;;;;;;12.45;5.15;;;;;;;3.98;45.64;152157.84;1756144;80;21159;-63
2020/12/07 02:26:26;;;;;;;13.50;5.55;;;;;;;3.94;45.62;152147.41;1785558;80;21808;-63
2020/12/07 02:29:00;;;;;;;13.58;5.92;;;;;;;3.81;45.69;152114.87;1785526;80;21218;-64
2020/12/07 02:31:34;;;;;;;18.27;5.87;;;;;;;3.70;45.87;152084.95;1785398;80;21174;-63
2020/12/07 02:34:06;;;;;;;12.45;4.95;;;;;;;3.87;45.71;152129.20;1785874;80;21740;-64
2020/12/07 02:36:40;;;;;;;13.38;5.03;;;;;;;3.78;45.79;152107.05;1797031;79;21904;-64
2020/12/07 02:39:15;;;;;;;15.13;5.28;;;;;;;3.84;45.55;152121.37;1801411;79;21348;-63
2020/12/07 02:41:49;;;;;;;13.83;5.80;;;;;;;3.59;45.81;152056.25;1801279;79;21174;-64
2020/12/07 02:44:21;;;;;;;13.65;4.83;;;;;;;3.53;45.95;152040.66;1801109;79;21368;-64
2020/12/07 02:46:57;;;;;;;13.05;4.75;;;;;;;3.61;45.96;152061.47;1801174;79;21170;-63
2020/12/07 02:49:30;;;;;;;10.63;5.20;;;;;;;3.71;45.75;152087.50;1776551;79;21313;-63
2020/12/07 02:52:05;;;;;;;11.03;5.03;;;;;;;3.63;45.79;152066.69;1801334;79;21345;-64
2020/12/07 02:54:39;;;;;;;12.73;5.78;;;;;;;3.62;45.74;152065.41;1797970;79;21321;-64
2020/12/07 02:57:13;;;;;;;10.95;5.47;;;;;;;3.57;45.86;152051.09;1785076;80;21170;-64
2020/12/07 02:59:46;;;;;;;11.63;4.87;;;;;;;3.57;45.81;152052.38;1785772;80;21162;-64
2020/12/07 03:02:18;;;;;;;12.85;5.28;;;;;;;3.52;45.87;152038.06;1785717;80;21186;-64
2020/12/07 03:04:52;;;;;;;10.58;5.85;;;;;;;3.55;45.75;152045.88;1785516;80;21375;-64
2020/12/07 03:07:24;;;;;;;8.43;4.30;;;;;;;3.57;45.70;152052.38;1785672;80;21186;-64
2020/12/07 03:09:59;;;;;;;13.48;4.40;;;;;;;3.53;45.76;152041.94;1785430;80;21364;-64
2020/12/07 03:12:32;;;;;;;11.95;4.65;;;;;;;3.41;45.89;152009.41;1770765;79;21316;-64
2020/12/07 03:15:05;;;;;;;11.08;4.45;;;;;;;3.34;45.97;151989.87;1776645;81;21427;-64
2020/12/07 03:17:40;;;;;;;12.60;5.17;;;;;;;3.36;45.99;151995.09;1776482;81;21856;-64
2020/12/07 03:20:13;;;;;;;9.60;4.78;;;;;;;3.36;45.96;151995.09;1776743;81;21329;-64
2020/12/07 03:22:46;;;;;;;14.05;5.03;;;;;;;3.41;45.90;152009.41;1776625;81;22028;-64
2020/12/07 03:25:18;;;;;;;13.58;5.75;;;;;;;3.52;45.69;152038.06;1776578;81;21793;-64
2020/12/07 03:27:51;;;;;;;9.60;4.12;;;;;;;3.61;45.48;152062.81;1776557;81;21332;-64
2020/12/07 03:30:24;;;;;;;11.03;6.20;;;;;;;3.55;45.52;152047.16;1778559;79;21309;-64
2020/12/07 03:32:57;;;;;;;13.28;4.70;;;;;;;3.44;45.55;152015.91;1808655;79;21707;-64
2020/12/07 03:35:30;;;;;;;11.90;4.62;;;;;;;3.49;45.47;152028.95;1808503;79;21336;-64
2020/12/07 03:38:04;;;;;;;13.45;5.10;;;;;;;3.46;45.47;152022.45;1808843;79;21147;-64
2020/12/07 03:40:36;;;;;;;9.25;4.42;;;;;;;3.53;45.44;152041.94;1808021;79;21261;-64
2020/12/07 03:43:10;;;;;;;9.20;4.00;;;;;;;3.52;45.45;152038.06;1808561;79;21779;-64
2020/12/07 03:45:44;;;;;;;12.07;4.75;;;;;;;3.50;45.34;152032.84;1807490;79;21379;-63
2020/12/07 03:48:19;;;;;;;10.93;4.12;;;;;;;3.49;45.38;152030.22;1807006;79;21423;-63
2020/12/07 03:50:51;;;;;;;15.18;6.30;;;;;;;3.47;45.39;152025.06;1806943;79;21292;-64
2020/12/07 03:53:24;;;;;;;12.90;4.90;;;;;;;3.49;45.38;152028.95;1808497;79;21682;-64
2020/12/07 03:55:57;;;;;;;9.13;4.67;;;;;;;3.39;45.43;152004.19;1808864;79;21210;-64
2020/12/07 03:58:30;;;;;;;10.72;4.28;;;;;;;3.40;45.49;152006.81;1808726;79;21788;-63
2020/12/07 04:01:04;;;;;;;12.03;4.70;;;;;;;3.52;45.50;152036.78;1808857;79;21312;-63
2020/12/07 04:03:38;;;;;;;11.90;5.45;;;;;;;3.46;45.43;152022.45;1808606;79;21194;-64
2020/12/07 04:06:15;;;;;;;11.90;5.40;;;;;;;3.44;45.51;152017.25;1808596;79;21158;-63
2020/12/07 04:08:48;;;;;;;12.23;4.95;;;;;;;3.49;45.49;152028.95;1806709;79;21403;-63
2020/12/07 04:11:20;;;;;;;12.37;4.22;;;;;;;3.32;45.53;151984.66;1792745;80;21242;-63
2020/12/07 04:13:52;;;;;;;12.03;4.92;;;;;;;3.34;45.56;151991.22;1805479;79;21332;-63
2020/12/07 04:16:29;;;;;;;9.35;3.50;;;;;;;3.37;45.45;151997.70;1808643;79;21391;-64
2020/12/07 04:19:01;;;;;;;12.80;4.87;;;;;;;3.03;45.62;151910.48;1808638;79;21790;-63
2020/12/07 04:21:34;;;;;;;12.50;5.12;;;;;;;3.35;45.50;151993.81;1808814;79;21790;-63
2020/12/07 04:24:06;;;;;;;13.28;4.85;;;;;;;3.41;45.48;152008.14;1808529;79;21217;-64
2020/12/07 04:26:38;;;;;;;12.20;4.60;;;;;;;3.37;45.43;151998.98;1808633;79;21321;-64
2020/12/07 04:29:10;;;;;;;13.43;5.35;;;;;;;3.35;45.33;151992.50;1808279;79;21325;-63
2020/12/07 04:31:42;;;;;;;13.68;5.03;;;;;;;3.37;45.30;151997.70;1808691;79;21718;-64
2020/12/07 04:34:15;;;;;;;12.98;4.65;;;;;;;3.21;45.28;151956.03;1808640;79;21151;-64
2020/12/07 04:36:47;;;;;;;9.80;4.30;;;;;;;3.30;45.46;151979.50;1808471;79;21196;-64
2020/12/07 04:39:19;;;;;;;11.45;4.75;;;;;;;3.27;45.30;151971.69;1808548;79;21876;-63
2020/12/07 04:41:51;;;;;;;11.45;4.70;;;;;;;3.12;45.28;151933.95;1808584;79;21210;-63
2020/12/07 04:44:23;;;;;;;12.23;6.55;;;;;;;3.20;45.47;151954.75;1808569;79;21677;-63
2020/12/07 04:46:56;;;;;;;11.78;4.75;;;;;;;3.33;45.16;151987.28;1808685;79;21710;-63
2020/12/07 04:49:33;;;;;;;14.18;5.67;;;;;;;3.03;45.63;151909.22;1784532;79;21340;-63
2020/12/07 04:52:05;;;;;;;12.33;4.95;;;;;;;2.94;45.71;151887.08;1808728;79;21229;-63
2020/12/07 04:54:42;;;;;;;13.70;5.80;;;;;;;3.16;45.55;151943.05;1808530;79;21170;-64
2020/12/07 04:57:16;;;;;;;12.88;4.78;;;;;;;3.22;45.36;151958.64;1808565;79;21195;-63
2020/12/07 04:59:48;;;;;;;13.40;5.37;;;;;;;3.31;45.14;151983.39;1808498;79;21812;-63
2020/12/07 05:02:20;;;;;;;12.00;5.12;;;;;;;3.04;45.18;151911.81;1796343;79;21156;-64
2020/12/07 05:04:56;;;;;;;9.93;4.67;;;;;;;3.18;45.11;151949.55;1792768;80;21360;-64
2020/12/07 05:07:28;;;;;;;12.00;4.92;;;;;;;3.18;45.08;151949.55;1792799;80;21219;-64
2020/12/07 05:10:09;;;;;;;13.75;5.17;;;;;;;3.08;45.19;151923.52;1792945;80;21258;-63
2020/12/07 05:12:40;;;;;;;15.98;6.08;;;;;;;3.12;45.18;151932.63;1793515;79;21836;-65
2020/12/07 05:15:12;;;;;;;12.90;5.45;;;;;;;3.15;45.25;151941.72;1793293;79;21408;-64
2020/12/07 05:17:43;;;;;;;13.55;4.67;;;;;;;3.18;45.17;151948.27;1776489;81;21329;-64
2020/12/07 05:20:17;;;;;;;15.30;5.47;;;;;;;3.22;45.06;151958.64;1784311;79;21300;-64
2020/12/07 05:22:51;;;;;;;13.45;5.35;;;;;;;3.18;45.05;151949.55;1808484;79;21340;-64
2020/12/07 05:25:24;;;;;;;9.23;5.35;;;;;;;3.15;45.10;151940.44;1808742;79;21171;-64
2020/12/07 05:27:59;;;;;;;12.18;3.80;;;;;;;3.23;45.01;151961.25;1759029;79;21344;-63
2020/12/07 05:30:35;;;;;;;13.90;5.45;;;;;;;3.23;45.09;151962.58;1796711;79;21167;-64
2020/12/07 05:33:06;;;;;;;11.60;5.40;;;;;;;3.20;45.07;151953.44;1783588;80;21168;-64
2020/12/07 05:35:39;;;;;;;13.03;4.85;;;;;;;3.29;44.93;151978.17;1815411;79;21289;-64
2020/12/07 05:38:11;;;;;;;11.83;4.85;;;;;;;3.23;44.93;151961.25;1803282;79;21821;-64
2020/12/07 05:40:44;;;;;;;14.50;5.30;;;;;;;3.31;44.92;151983.39;1782431;80;21237;-64
2020/12/07 05:43:16;;;;;;;14.07;5.67;;;;;;;3.26;44.80;151969.06;1776266;81;21649;-64
2020/12/07 05:45:49;;;;;;;11.55;4.97;;;;;;;3.22;44.97;151958.64;1772185;81;21324;-63
2020/12/07 05:48:21;;;;;;;11.50;5.00;;;;;;;3.22;44.96;151959.97;1773996;81;21309;-64
2020/12/07 05:50:54;;;;;;;11.63;4.53;;;;;;;3.04;45.28;151911.81;1776282;81;21381;-64
2020/12/07 05:53:26;;;;;;;10.78;4.67;;;;;;;2.91;45.29;151879.27;1774220;81;21320;-64
2020/12/07 05:55:58;;;;;;;12.75;6.20;;;;;;;3.27;45.02;151972.97;1774039;81;21175;-64
2020/12/07 05:58:33;;;;;;;13.40;5.33;;;;;;;3.22;44.95;151958.64;1776077;81;21305;-64
2020/12/07 06:01:05;;;;;;;12.70;4.85;;;;;;;3.11;45.03;151931.34;1776171;81;21325;-64
2020/12/07 06:03:38;;;;;;;14.07;5.47;;;;;;;3.11;45.15;151930.02;1765690;81;21304;-64
2020/12/07 06:06:10;;;;;;;11.53;5.37;;;;;;;3.10;45.17;151927.41;1795261;80;21249;-64
2020/12/07 06:08:44;;;;;;;9.78;4.47;;;;;;;3.05;45.44;151915.70;1782067;79;21715;-64
2020/12/07 06:11:16;;;;;;;12.98;5.25;;;;;;;2.98;45.36;151896.17;1770454;81;21330;-63
2020/12/07 06:13:48;;;;;;;13.70;5.00;;;;;;;2.94;45.49;151885.80;1774494;79;21179;-63
2020/12/07 06:16:21;;;;;;;12.78;5.35;;;;;;;2.97;45.47;151893.56;1776679;80;21206;-63
2020/12/07 06:18:56;;;;;;;10.08;4.67;;;;;;;2.89;45.63;151872.77;1732849;82;21336;-63
2020/12/07 06:21:29;;;;;;;13.13;4.85;;;;;;;2.95;45.49;151889.69;1759674;79;21150;-63
2020/12/07 06:24:02;;;;;;;13.88;4.50;;;;;;;3.03;45.39;151909.22;1751438;81;21302;-64
2020/12/07 06:26:34;;;;;;;12.53;4.85;;;;;;;3.17;45.19;151945.66;1787065;79;21681;-64
2020/12/07 06:29:06;;;;;;;12.82;4.72;;;;;;;3.15;45.42;151941.72;1790423;79;21167;-63
2020/12/07 06:31:39;;;;;;;14.03;5.62;;;;;;;3.61;44.98;152061.47;1750193;81;21305;-63
2020/12/07 06:34:11;;;;;;;10.60;4.78;;;;;;;3.58;44.83;152054.98;1784787;79;21427;-62
2020/12/07 06:36:44;;;;;;;12.13;4.53;;;;;;;3.39;44.92;152002.92;1805459;79;21708;-63
2020/12/07 06:39:16;;;;;;;12.05;4.22;;;;;;;3.24;45.21;151965.13;1798447;79;21170;-62
2020/12/07 06:41:49;;;;;;;14.90;5.10;;;;;;;3.05;45.50;151915.70;1794820;79;21340;-61
2020/12/07 06:44:24;;;;;;;13.83;4.70;;;;;;;3.29;45.37;151976.91;1784946;79;21160;-61
2020/12/07 06:47:01;;;;;;;13.22;5.22;;;;;;;3.26;45.42;151969.06;1805183;79;21297;-62
2020/12/07 06:50:13;;;;;;;12.85;4.55;;;;;;;3.51;45.01;152034.16;1776664;79;21304;-64
2020/12/07 06:52:19;;;;;;;13.70;4.85;;;;;;;3.52;45.09;152038.06;1773973;79;21630;-64
2020/12/07 06:55:10;;;;;;;11.28;4.72;;;;;;;3.71;44.85;152088.84;1800677;79;21329;-63
2020/12/07 06:57:49;;;;;;;12.03;4.90;;;;;;;3.81;44.75;152113.59;1784944;79;21297;-65
2020/12/07 07:00:24;;;;;;;12.25;4.92;;;;;;;3.91;44.63;152140.91;1808581;79;21364;-64
2020/12/07 07:02:59;;;;;;;14.23;5.08;;;;;;;3.78;44.57;152107.05;1802204;79;21314;-65
2020/12/07 07:05:31;;;;;;;15.23;5.70;;;;;;;4.01;44.51;152165.67;1810075;79;21340;-65
2020/12/07 07:08:05;;;;;;;15.10;5.83;;;;;;;3.77;44.64;152104.44;1808181;79;21167;-66
2020/12/07 07:10:37;;;;;;;11.05;5.15;;;;;;;3.76;45.10;152100.55;1781768;78;21320;-66
2020/12/07 07:13:11;;;;;;;11.08;5.12;;;;;;;3.68;44.76;152081.02;1779695;79;21745;-73
2020/12/07 07:15:48;;;;;;;15.43;5.35;;;;;;;3.88;44.54;152131.81;1760958;79;21902;-68
2020/12/07 07:18:21;;;;;;;11.97;4.62;;;;;;;3.97;44.48;152155.25;1785580;79;21162;-68
2020/12/07 07:21:02;;;;;;;11.05;5.10;;;;;;;3.87;44.37;152129.20;1779701;79;21784;-64
2020/12/07 07:23:40;;;;;;;10.28;4.75;;;;;;;4.30;44.42;152241.20;1757393;79;21238;-65
2020/12/07 07:26:32;;;;;;;14.78;5.45;;;;;;;4.40;44.11;152267.31;1753491;79;21278;-64
2020/12/07 07:29:04;;;;;;;12.82;4.85;;;;;;;4.54;44.06;152306.38;1752388;79;21403;-66
2020/12/07 07:31:37;;;;;;;19.50;5.65;;;;;;;5.50;43.21;152558.00;1754681;80;21270;-68
2020/12/07 07:34:24;;;;;;;12.80;5.45;;;;;;;6.82;41.97;152902.66;1768646;79;21222;-66
2020/12/07 07:37:02;;;;;;;12.85;4.92;;;;;;;7.34;40.96;153039.83;1762168;79;21190;-66
2020/12/07 07:39:35;;;;;;;22.80;9.50;;;;;;;7.86;40.06;153175.78;1753246;79;21415;-66
2020/12/07 07:42:13;;;;;;;10.08;4.90;;;;;;;8.42;39.20;153323.58;1755645;79;21276;-66
2020/12/07 07:44:47;;;;;;;9.70;4.87;;;;;;;8.77;37.77;153416.50;1750649;79;21367;-67
2020/12/07 07:47:25;;;;;;;12.95;5.15;;;;;;;9.17;37.34;153522.50;1756692;80;22122;-66
2020/12/07 07:50:17;;;;;;;59.13;19.70;;;;;;;9.80;37.29;153686.17;1752679;81;21319;-65
2020/12/07 08:18:17;;;;;;;13.08;6.37;;;;;;;11.50;33.42;154135.84;1799842;80;21179;-67
2020/12/07 08:20:59;;;;;;;14.30;5.67;;;;;;;11.67;33.53;154180.48;1774246;81;21245;-66
2020/12/07 08:23:34;;;;;;;10.85;5.10;;;;;;;12.10;33.26;154294.67;1797393;80;21863;-67
2020/12/07 08:26:07;;;;;;;13.55;5.95;;;;;;;12.01;32.58;154271.06;1789196;79;21156;-64
2020/12/07 08:28:42;;;;;;;10.30;5.12;;;;;;;11.99;32.80;154264.45;1791399;80;21253;-63
2020/12/07 08:31:18;;;;;;;13.68;6.45;;;;;;;11.63;32.76;154168.69;1791657;80;21428;-62
2020/12/07 08:34:11;;;;;;;8.85;4.65;;;;;;;11.47;32.90;154126.63;1791898;79;21190;-65
2020/12/07 08:36:45;;;;;;;9.98;5.40;;;;;;;11.26;33.22;154071.55;1775967;81;21796;-64
2020/12/07 08:39:17;;;;;;;13.95;5.30;;;;;;;11.16;33.53;154045.31;1775842;81;21328;-63
2020/12/07 08:41:49;;;;;;;11.45;5.70;;;;;;;10.95;33.65;153990.25;1780528;79;21761;-60
2020/12/07 08:44:22;;;;;;;10.45;4.60;;;;;;;11.06;33.86;154019.09;1787214;79;21336;-64
2020/12/07 08:46:54;;;;;;;11.18;5.08;;;;;;;11.20;33.76;154055.83;1744601;82;21272;-62
2020/12/07 08:49:26;;;;;;;14.73;7.35;;;;;;;11.47;33.76;154127.97;1754167;81;21820;-63
2020/12/07 08:51:59;;;;;;;12.78;7.35;;;;;;;11.76;33.53;154204.09;1799498;80;21356;-64
2020/12/07 08:54:36;;;;;;;16.65;7.42;;;;;;;12.01;33.14;154271.06;1782761;80;21356;-64
2020/12/07 08:57:11;;;;;;;10.58;5.97;;;;;;;11.97;32.96;154260.53;1773578;80;21389;-64
2020/12/07 08:59:48;;;;;;;11.90;6.22;;;;;;;11.89;32.95;154239.56;1771135;79;21186;-63
2020/12/07 09:02:43;;;;;;;12.80;5.87;;;;;;;12.18;33.03;154315.66;1772277;80;21360;-66
2020/12/07 09:05:37;;;;;;;14.30;8.60;;;;;;;12.48;32.39;154393.11;1771101;79;21159;-66
2020/12/07 09:08:15;;;;;;;13.55;5.67;;;;;;;12.60;32.21;154425.97;1772026;80;21289;-64
2020/12/07 09:11:14;;;;;;;12.58;6.75;;;;;;;12.83;32.11;154486.39;1781372;79;21780;-66
2020/12/07 09:13:46;;;;;;;11.38;6.45;;;;;;;13.24;31.76;154595.47;1784555;79;21820;-66
2020/12/07 09:16:20;;;;;;;17.27;7.47;;;;;;;13.66;31.89;154707.14;1782747;79;21454;-64
2020/12/07 09:18:53;;;;;;;16.70;8.10;;;;;;;14.24;31.57;154858.41;1784218;79;21777;-64
2020/12/07 09:21:25;;;;;;;12.75;5.10;;;;;;;14.83;31.36;155016.28;1777590;79;21348;-64
2020/12/07 09:23:57;;;;;;;13.83;5.53;;;;;;;15.25;30.72;155126.86;1786264;79;21321;-65
2020/12/07 09:26:31;;;;;;;11.53;4.67;;;;;;;15.44;29.91;155178.22;1776045;79;21383;-65
2020/12/07 09:29:08;;;;;;;11.43;5.22;;;;;;;15.74;29.79;155257.19;1779115;79;21744;-72
2020/12/07 09:31:43;;;;;;;11.63;4.87;;;;;;;15.52;29.51;155199.27;1780368;79;21371;-63
2020/12/07 09:34:16;;;;;;;12.13;5.62;;;;;;;15.35;29.32;155151.89;1782188;79;21206;-66
2020/12/07 09:36:48;;;;;;;17.00;6.45;;;;;;;15.48;29.23;155188.77;1778633;79;21915;-65
2020/12/07 09:39:21;;;;;;;11.18;6.12;;;;;;;15.92;29.56;155304.64;1776488;79;21379;-67
2020/12/07 09:41:57;;;;;;;9.13;4.50;;;;;;;16.16;28.95;155367.88;1777113;79;21368;-69
2020/12/07 09:44:30;;;;;;;22.60;8.60;;;;;;;15.94;28.84;155308.56;1776883;79;21323;-66
2020/12/07 09:47:07;;;;;;;12.23;5.83;;;;;;;15.96;28.73;155315.19;1780268;79;21797;-63
2020/12/07 09:49:42;;;;;;;10.25;5.30;;;;;;;16.18;29.06;155373.14;1780449;79;21856;-65
2020/12/07 09:52:16;;;;;;;11.65;4.80;;;;;;;16.51;28.36;155460.16;1780176;79;21380;-67
2020/12/07 09:54:48;;;;;;;12.43;5.22;;;;;;;16.66;28.28;155501.00;1786148;79;21679;-67
2020/12/07 09:57:21;;;;;;;10.45;4.55;;;;;;;16.61;27.94;155487.78;1778299;79;21315;-66
2020/12/07 09:59:53;;;;;;;13.25;4.65;;;;;;;16.63;27.90;155493.08;1775536;79;21438;-68
2020/12/07 10:02:26;;;;;;;10.13;4.30;;;;;;;16.62;27.98;155489.14;1785839;79;21222;-73
2020/12/07 10:05:07;;;;;;;13.28;5.35;;;;;;;16.79;28.00;155535.27;1777465;79;21690;-65
2020/12/07 10:07:44;;;;;;;10.48;4.80;;;;;;;17.01;27.61;155591.97;1783335;79;22261;-66
2020/12/07 10:10:25;;;;;;;11.55;5.50;;;;;;;16.93;27.58;155572.19;1776764;79;21383;-66
2020/12/07 10:13:06;;;;;;;13.32;6.10;;;;;;;17.26;27.65;155660.50;1784679;79;21154;-68
2020/12/07 10:15:42;;;;;;;9.35;4.67;;;;;;;17.16;27.40;155631.48;1781162;79;21332;-68
2020/12/07 10:18:16;;;;;;;10.10;5.25;;;;;;;17.25;27.19;155656.56;1784381;79;21234;-68
2020/12/07 10:20:52;;;;;;;13.08;6.12;;;;;;;17.40;27.49;155697.47;1783832;79;21324;-68
2020/12/07 10:23:28;;;;;;;9.95;4.62;;;;;;;17.83;27.33;155809.61;1784707;79;21234;-68
2020/12/07 10:26:01;;;;;;;9.78;5.35;;;;;;;17.71;26.91;155777.94;1782099;79;21898;-69
2020/12/07 10:28:37;;;;;;;10.53;5.78;;;;;;;17.27;26.97;155661.84;1778554;79;21384;-69
2020/12/07 10:31:11;;;;;;;12.20;6.87;;;;;;;16.99;26.90;155587.98;1781447;79;21909;-69
2020/12/07 10:33:47;;;;;;;11.28;5.37;;;;;;;16.71;27.19;155514.19;1778566;79;21757;-70
2020/12/07 10:36:23;;;;;;;9.40;4.55;;;;;;;16.81;27.44;155540.55;1778242;79;21224;-66
2020/12/07 10:38:57;;;;;;;9.65;4.40;;;;;;;16.66;27.55;155501.00;1778124;79;21360;-69
2020/12/07 10:41:34;;;;;;;9.40;4.70;;;;;;;16.66;27.55;155501.00;1778741;79;21483;-66
2020/12/07 10:44:10;;;;;;;20.70;7.80;;;;;;;16.99;27.49;155586.69;1783062;79;21320;-66
2020/12/07 10:46:44;;;;;;;12.23;5.55;;;;;;;16.95;27.15;155577.47;1771506;79;21461;-68
2020/12/07 10:49:16;;;;;;;8.88;4.67;;;;;;;17.37;27.23;155688.25;1769996;80;21245;-68
2020/12/07 10:51:48;;;;;;;8.25;4.50;;;;;;;17.41;26.74;155698.83;1747593;80;23039;-68
2020/12/07 10:54:22;;;;;;;10.20;4.83;;;;;;;17.06;26.94;155605.13;1784363;79;21894;-68
2020/12/07 10:56:56;;;;;;;9.55;4.62;;;;;;;17.04;27.09;155601.19;1772404;80;21187;-68
2020/12/07 10:59:30;;;;;;;10.60;4.37;;;;;;;17.00;27.08;155590.63;1750180;80;21265;-68
2020/12/07 11:02:03;;;;;;;9.18;4.80;;;;;;;17.03;27.13;155597.20;1770267;79;21182;-71
2020/12/07 11:04:36;;;;;;;8.10;4.55;;;;;;;17.11;27.34;155619.63;1752034;80;21519;-68
2020/12/07 11:07:12;;;;;;;11.73;5.12;;;;;;;17.37;27.10;155689.55;1746817;81;21312;-69
2020/12/07 11:09:44;;;;;;;14.18;5.80;;;;;;;17.44;27.06;155708.05;1778647;79;21182;-66
2020/12/07 11:12:21;;;;;;;14.35;7.10;;;;;;;17.39;27.22;155694.84;1786976;79;21376;-68
2020/12/07 11:14:53;;;;;;;7.50;4.67;;;;;;;17.41;27.31;155700.13;1781062;79;21272;-66
2020/12/07 11:17:26;;;;;;;10.18;4.78;;;;;;;17.60;27.34;155750.22;1785173;79;21375;-67
2020/12/07 11:19:59;;;;;;;13.85;6.10;;;;;;;17.63;27.22;155756.84;1776354;79;21229;-67
2020/12/07 11:22:32;;;;;;;13.70;6.90;;;;;;;17.31;27.58;155673.75;1775761;79;21411;-67
2020/12/07 11:25:04;;;;;;;40.85;16.00;;;;;;;16.67;27.87;155503.63;1776983;79;21218;-68
2020/12/07 11:27:38;;;;;;;17.50;7.72;;;;;;;16.29;28.17;155402.13;1779245;79;21411;-65
2020/12/07 11:33:26;;;;;;;14.28;6.40;;;;;;;16.45;28.43;155444.31;1776368;79;21733;-68
2020/12/07 11:36:01;;;;;;;9.48;5.83;;;;;;;16.04;28.48;155334.91;1774477;79;21265;-67
2020/12/07 11:38:37;;;;;;;12.15;5.85;;;;;;;16.09;28.72;155348.09;1776099;79;21828;-69
2020/12/07 11:46:50;;;;;;;21.70;8.80;;;;;;;16.06;28.76;155340.19;1776749;79;21284;-66
2020/12/07 11:49:14;;;;;;;9.48;5.67;;;;;;;16.09;28.57;155348.09;1774730;79;21272;-67
2020/12/07 11:51:47;;;;;;;11.28;5.70;;;;;;;15.67;28.79;155237.48;1788718;79;21340;-68
2020/12/07 11:54:19;;;;;;;11.22;6.37;;;;;;;15.48;29.00;155188.77;1781918;79;21356;-67
2020/12/07 11:56:52;;;;;;;10.45;5.67;;;;;;;15.21;29.16;155116.31;1779956;79;21386;-68
2020/12/07 11:59:24;;;;;;;10.50;4.80;;;;;;;15.19;29.27;155111.03;1779705;79;21352;-68
2020/12/07 12:01:56;;;;;;;9.90;5.62;;;;;;;15.16;29.27;155103.13;1775722;79;21694;-68
2020/12/07 12:04:29;;;;;;;10.40;5.58;;;;;;;15.00;29.39;155059.70;1778943;79;21938;-67
2020/12/07 12:07:01;;;;;;;9.65;5.25;;;;;;;14.61;29.53;154957.05;1775692;79;21765;-67
2020/12/07 12:09:42;;;;;;;8.63;4.78;;;;;;;14.09;30.00;154818.91;1779424;79;21223;-68
2020/12/07 12:12:23;;;;;;;10.68;5.12;;;;;;;13.74;30.15;154728.22;1782058;79;21363;-68
2020/12/07 12:15:08;;;;;;;8.85;4.95;;;;;;;14.03;30.23;154804.44;1782080;79;21344;-69
2020/12/07 12:17:43;;;;;;;8.57;4.73;;;;;;;13.74;30.40;154728.22;1800490;79;21372;-67
2020/12/07 12:20:15;;;;;;;10.03;5.25;;;;;;;13.70;30.61;154717.67;1781535;79;21178;-68
2020/12/07 12:22:48;;;;;;;12.13;5.20;;;;;;;13.57;30.84;154683.50;1777403;79;21947;-68
2020/12/07 12:25:22;;;;;;;10.70;5.08;;;;;;;13.50;30.76;154662.48;1774508;80;21174;-69
2020/12/07 12:27:54;;;;;;;9.95;4.85;;;;;;;12.77;31.46;154470.59;1776152;79;21367;-68
2020/12/07 12:30:26;;;;;;;9.40;5.03;;;;;;;12.52;31.79;154404.92;1769907;80;21745;-69